createdAt,value
2019-02-25T00:01:52.124Z,4.41
2019-02-25T00:04:22.154Z,4.43
2019-02-25T00:06:52.259Z,4.53
2019-02-25T00:09:22.292Z,4.60
2019-02-25T00:11:52.406Z,4.55
2019-02-25T00:14:22.668Z,4.38
2019-02-25T00:16:52.700Z,4.31
2019-02-25T00:19:22.758Z,4.28
2019-02-25T00:21:52.896Z,4.20
2019-02-25T00:24:22.929Z,4.18
2019-02-25T00:26:52.956Z,4.20
2019-02-25T00:29:23.044Z,4.35
2019-02-25T00:31:53.072Z,4.23
2019-02-25T00:34:23.313Z,4.60
2019-02-25T00:36:53.319Z,4.49
2019-02-25T00:39:23.369Z,4.64
2019-02-25T00:41:53.403Z,4.55
2019-02-25T00:44:23.459Z,4.65
2019-02-25T00:46:53.454Z,4.22
2019-02-25T00:49:23.503Z,4.04
2019-02-25T00:51:53.509Z,4.29
2019-02-25T00:54:23.555Z,4.35
2019-02-25T00:56:53.559Z,4.30
2019-02-25T00:59:23.589Z,4.13
2019-02-25T01:01:53.647Z,4.35
2019-02-25T01:04:23.661Z,3.97
2019-02-25T01:06:53.647Z,4.23
2019-02-25T01:09:23.733Z,4.44
2019-02-25T01:11:53.712Z,4.31
2019-02-25T01:14:24.195Z,4.52
2019-02-25T01:16:54.687Z,4.49
2019-02-25T01:19:25.203Z,4.42
2019-02-25T01:21:56.159Z,4.11
2019-02-25T01:24:26.181Z,3.99
2019-02-25T01:26:56.179Z,3.88
2019-02-25T01:29:26.191Z,4.00
2019-02-25T01:31:56.189Z,4.26
2019-02-25T01:34:26.211Z,4.22
2019-02-25T01:36:56.215Z,4.41
2019-02-25T01:39:26.235Z,4.09
2019-02-25T01:41:56.262Z,3.86
2019-02-25T01:44:26.264Z,4.12
2019-02-25T01:46:56.391Z,4.29
2019-02-25T01:49:26.415Z,3.84
2019-02-25T01:51:56.440Z,3.80
2019-02-25T01:54:26.459Z,3.95
2019-02-25T01:56:56.485Z,3.74
2019-02-25T01:59:26.493Z,3.99
2019-02-25T02:01:56.527Z,3.69
2019-02-25T02:04:26.578Z,4.02
2019-02-25T02:06:56.611Z,4.00
2019-02-25T02:09:26.639Z,3.46
2019-02-25T02:11:56.647Z,3.59
2019-02-25T02:14:26.661Z,3.67
2019-02-25T02:16:56.715Z,3.61
2019-02-25T02:19:26.760Z,3.44
2019-02-25T02:21:56.838Z,3.25
2019-02-25T02:24:26.923Z,3.38
2019-02-25T02:26:56.959Z,3.21
2019-02-25T02:29:26.960Z,3.39
2019-02-25T02:31:57.039Z,3.09
2019-02-25T02:34:26.993Z,3.35
2019-02-25T02:36:57.017Z,3.32
2019-02-25T02:39:27.022Z,3.16
2019-02-25T02:42:21.614Z,3.20
2019-02-25T02:44:54.470Z,3.21
2019-02-25T02:47:42.939Z,3.08
2019-02-25T02:50:16.249Z,3.03
2019-02-25T02:52:46.280Z,3.13
2019-02-25T02:55:16.257Z,3.14
2019-02-25T02:57:46.302Z,3.28
2019-02-25T03:00:17.714Z,3.18
2019-02-25T03:02:47.744Z,3.21
2019-02-25T03:05:18.441Z,3.18
2019-02-25T03:07:48.462Z,2.95
2019-02-25T03:10:19.200Z,3.25
2019-02-25T03:12:49.317Z,3.49
2019-02-25T03:15:20.806Z,3.33
2019-02-25T03:17:50.840Z,3.39
2019-02-25T03:20:20.857Z,2.88
2019-02-25T03:22:50.880Z,2.79
2019-02-25T03:25:21.002Z,3.39
2019-02-25T03:27:51.037Z,3.32
2019-02-25T03:30:21.489Z,2.98
2019-02-25T03:32:51.549Z,2.85
2019-02-25T03:35:21.637Z,2.87
2019-02-25T03:37:51.805Z,2.66
2019-02-25T03:40:21.849Z,3.11
2019-02-25T03:42:52.105Z,3.36
2019-02-25T03:45:22.156Z,3.10
2019-02-25T03:47:52.165Z,2.91
2019-02-25T03:50:22.193Z,3.13
2019-02-25T03:52:52.284Z,2.83
2019-02-25T03:55:22.369Z,2.76
2019-02-25T03:57:52.364Z,2.90
2019-02-25T04:00:23.077Z,3.00
2019-02-25T04:02:53.121Z,2.89
2019-02-25T04:05:23.171Z,2.85
2019-02-25T04:07:53.198Z,2.91
2019-02-25T04:10:23.234Z,2.93
2019-02-25T04:12:53.248Z,2.78
2019-02-25T04:15:25.973Z,2.92
2019-02-25T04:17:55.956Z,3.14
2019-02-25T04:20:25.980Z,2.70
2019-02-25T04:22:55.980Z,2.76
2019-02-25T04:25:26.019Z,2.77
2019-02-25T04:27:56.057Z,2.80
2019-02-25T04:30:26.089Z,2.74
2019-02-25T04:32:56.109Z,2.49
2019-02-25T04:35:26.120Z,2.80
2019-02-25T04:37:56.108Z,2.67
2019-02-25T04:40:26.126Z,2.63
2019-02-25T04:42:56.129Z,2.72
2019-02-25T04:45:26.164Z,2.48
2019-02-25T04:47:56.229Z,2.45
2019-02-25T04:50:26.334Z,2.51
2019-02-25T04:52:56.382Z,2.57
2019-02-25T04:55:26.398Z,2.83
2019-02-25T04:57:56.454Z,2.77
2019-02-25T05:00:26.450Z,2.82
2019-02-25T05:02:56.460Z,2.62
2019-02-25T05:05:26.486Z,2.38
2019-02-25T05:07:56.596Z,2.59
2019-02-25T05:10:26.578Z,2.46
2019-02-25T05:13:02.450Z,2.39
2019-02-25T05:15:33.351Z,2.49
2019-02-25T05:18:03.366Z,2.40
2019-02-25T05:20:33.446Z,2.59
2019-02-25T05:23:03.470Z,2.46
2019-02-25T05:25:33.549Z,2.38
2019-02-25T05:28:03.604Z,2.50
2019-02-25T05:30:33.607Z,2.29
2019-02-25T05:33:03.671Z,2.21
2019-02-25T05:35:33.684Z,2.55
2019-02-25T05:38:15.583Z,2.25
2019-02-25T05:40:45.579Z,2.23
2019-02-25T05:43:23.223Z,2.42
2019-02-25T05:45:53.216Z,2.21
2019-02-25T05:48:23.249Z,2.20
2019-02-25T05:50:53.246Z,1.96
2019-02-25T05:53:23.259Z,2.32
2019-02-25T05:55:53.300Z,1.91
2019-02-25T05:58:23.313Z,1.92
2019-02-25T06:00:53.318Z,1.86
2019-02-25T06:03:23.321Z,2.17
2019-02-25T06:05:53.416Z,1.99
2019-02-25T06:08:23.437Z,1.99
2019-02-25T06:10:53.534Z,1.96
2019-02-25T06:13:23.495Z,2.06
2019-02-25T06:15:53.589Z,1.87
2019-02-25T06:18:23.573Z,1.74
2019-02-25T06:20:53.611Z,1.91
2019-02-25T06:23:23.605Z,2.16
2019-02-25T06:25:53.696Z,2.28
2019-02-25T06:28:30.701Z,2.51
2019-02-25T06:31:00.725Z,2.22
2019-02-25T06:33:31.149Z,2.07
2019-02-25T06:36:01.121Z,2.21
2019-02-25T06:38:31.201Z,2.03
2019-02-25T06:41:02.758Z,1.97
2019-02-25T06:43:32.765Z,2.12
2019-02-25T06:46:06.367Z,2.06
2019-02-25T06:48:36.485Z,2.18
2019-02-25T06:51:06.589Z,1.97
2019-02-25T06:53:36.583Z,2.18
2019-02-25T06:56:06.634Z,2.14
2019-02-25T06:58:36.641Z,2.29
2019-02-25T07:01:06.817Z,2.30
2019-02-25T07:03:37.092Z,2.17
2019-02-25T07:06:12.199Z,2.07
2019-02-25T07:08:54.511Z,2.09
2019-02-25T07:11:46.252Z,2.09
2019-02-25T07:14:41.425Z,2.27
2019-02-25T07:17:36.505Z,2.08
2019-02-25T07:20:25.439Z,1.95
2019-02-25T07:23:14.187Z,2.13
2019-02-25T07:26:02.049Z,2.07
2019-02-25T07:28:49.633Z,2.00
2019-02-25T07:31:53.687Z,2.02
2019-02-25T07:34:50.609Z,2.30
2019-02-25T07:37:48.883Z,2.27
2019-02-25T07:40:25.461Z,2.34
2019-02-25T07:43:16.834Z,2.29
2019-02-25T07:46:11.841Z,2.50
2019-02-25T07:49:09.903Z,2.51
2019-02-25T07:52:01.606Z,2.51
2019-02-25T07:55:05.861Z,2.39
2019-02-25T07:58:02.290Z,2.44
2019-02-25T08:00:43.639Z,2.38
2019-02-25T08:03:26.261Z,2.41
2019-02-25T08:06:33.339Z,2.61
2019-02-25T08:09:40.125Z,2.70
2019-02-25T08:12:14.442Z,2.66
2019-02-25T08:14:50.899Z,2.67
2019-02-25T08:17:42.812Z,2.78
2019-02-25T08:20:27.944Z,2.87
2019-02-25T08:23:10.431Z,2.91
2019-02-25T08:26:11.418Z,2.95
2019-02-25T08:28:59.032Z,3.00
2019-02-25T08:31:39.358Z,3.11
2019-02-25T08:34:31.118Z,3.36
2019-02-25T08:37:53.378Z,3.41
2019-02-25T08:40:57.929Z,3.42
2019-02-25T08:43:31.779Z,3.61
2019-02-25T08:46:12.046Z,3.61
2019-02-25T08:48:54.840Z,3.74
2019-02-25T08:51:24.930Z,3.68
2019-02-25T08:53:54.931Z,3.70
2019-02-25T08:56:24.943Z,3.80
2019-02-25T08:58:55.010Z,3.95
2019-02-25T09:01:25.051Z,4.06
2019-02-25T09:03:55.040Z,4.13
2019-02-25T09:06:25.100Z,4.42
2019-02-25T09:08:55.096Z,4.53
2019-02-25T09:11:25.096Z,4.51
2019-02-25T09:13:55.133Z,4.77
2019-02-25T09:16:25.170Z,4.73
2019-02-25T09:18:55.164Z,4.77
2019-02-25T09:21:31.550Z,4.97
2019-02-25T09:23:56.926Z,4.91
2019-02-25T09:26:26.957Z,5.06
2019-02-25T09:28:57.458Z,5.04
2019-02-25T09:31:27.633Z,5.18
2019-02-25T09:33:57.628Z,5.19
2019-02-25T09:36:27.748Z,5.33
2019-02-25T09:38:57.774Z,5.34
2019-02-25T09:41:30.200Z,5.59
2019-02-25T09:43:59.576Z,5.56
2019-02-25T09:46:29.628Z,5.58
2019-02-25T09:48:59.631Z,5.76
2019-02-25T09:51:29.764Z,5.70
2019-02-25T09:53:59.862Z,5.83
2019-02-25T09:56:29.992Z,5.83
2019-02-25T09:59:00.268Z,5.95
2019-02-25T10:01:30.400Z,5.96
2019-02-25T10:04:00.472Z,6.21
2019-02-25T10:06:30.912Z,6.43
2019-02-25T10:09:01.011Z,6.33
2019-02-25T10:11:31.120Z,6.40
2019-02-25T10:14:02.281Z,6.48
2019-02-25T10:16:32.390Z,6.61
2019-02-25T10:19:02.420Z,6.51
2019-02-25T10:21:32.457Z,6.90
2019-02-25T10:24:02.536Z,6.87
2019-02-25T10:26:32.631Z,6.87
2019-02-25T10:29:02.677Z,6.76
2019-02-25T10:31:32.798Z,6.92
2019-02-25T10:34:02.882Z,6.88
2019-02-25T10:36:32.958Z,6.90
2019-02-25T10:39:04.225Z,7.29
2019-02-25T10:41:34.264Z,7.41
2019-02-25T10:44:06.340Z,7.21
2019-02-25T10:46:36.023Z,6.90
2019-02-25T10:49:11.599Z,6.90
2019-02-25T10:51:40.626Z,7.49
2019-02-25T10:54:09.579Z,7.41
2019-02-25T10:56:53.675Z,7.57
2019-02-25T10:59:23.512Z,7.77
2019-02-25T11:01:53.552Z,7.88
2019-02-25T11:04:24.479Z,8.01
2019-02-25T11:06:55.316Z,8.00
2019-02-25T11:09:42.041Z,8.13
2019-02-25T11:12:12.348Z,8.09
2019-02-25T11:14:43.424Z,8.23
2019-02-25T11:17:14.043Z,8.43
2019-02-25T11:19:45.206Z,8.61
2019-02-25T11:22:16.347Z,8.67
2019-02-25T11:24:49.313Z,8.79
2019-02-25T11:27:18.957Z,8.90
2019-02-25T11:29:49.072Z,8.75
2019-02-25T11:32:19.821Z,9.07
2019-02-25T11:34:50.906Z,9.00
2019-02-25T11:37:22.540Z,9.10
2019-02-25T11:39:54.787Z,9.03
2019-02-25T11:42:24.543Z,9.25
2019-02-25T11:44:57.060Z,9.50
2019-02-25T11:47:26.469Z,9.58
2019-02-25T11:49:56.643Z,8.90
2019-02-25T11:52:26.707Z,8.86
2019-02-25T11:54:56.827Z,9.14
2019-02-25T11:57:26.936Z,9.49
2019-02-25T11:59:56.983Z,9.08
2019-02-25T12:02:27.016Z,8.93
2019-02-25T12:04:57.185Z,9.60
2019-02-25T12:07:27.301Z,9.55
2019-02-25T12:09:57.416Z,9.69
2019-02-25T12:12:27.749Z,9.41
2019-02-25T12:14:57.871Z,9.48
2019-02-25T12:17:27.900Z,9.86
2019-02-25T12:19:58.065Z,9.88
2019-02-25T12:22:28.093Z,10.00
2019-02-25T12:24:58.232Z,9.91
2019-02-25T12:27:28.398Z,10.00
2019-02-25T12:29:58.423Z,10.20
2019-02-25T12:32:28.509Z,10.07
2019-02-25T12:34:58.563Z,10.35
2019-02-25T12:37:28.724Z,10.25
2019-02-25T12:39:58.735Z,10.46
2019-02-25T12:42:28.795Z,10.20
2019-02-25T12:44:58.907Z,10.50
2019-02-25T12:47:29.031Z,10.47
2019-02-25T12:49:59.159Z,10.63
2019-02-25T12:52:29.261Z,10.75
2019-02-25T12:54:59.320Z,10.61
2019-02-25T12:57:29.413Z,10.80
2019-02-25T12:59:59.578Z,10.80
2019-02-25T13:02:29.710Z,10.45
2019-02-25T13:04:59.951Z,10.96
2019-02-25T13:07:30.213Z,11.23
2019-02-25T13:10:00.310Z,11.09
2019-02-25T13:12:30.470Z,11.18
2019-02-25T13:15:00.572Z,11.36
2019-02-25T13:17:30.625Z,11.42
2019-02-25T13:20:00.775Z,11.22
2019-02-25T13:22:30.902Z,11.46
2019-02-25T13:25:03.282Z,11.65
2019-02-25T13:27:34.160Z,11.50
2019-02-25T13:30:04.216Z,11.48
2019-02-25T13:32:34.522Z,11.83
2019-02-25T13:35:04.723Z,11.94
2019-02-25T13:37:34.870Z,11.63
2019-02-25T13:40:08.052Z,11.93
2019-02-25T13:42:38.160Z,11.95
2019-02-25T13:45:08.995Z,12.02
2019-02-25T13:47:39.046Z,11.65
2019-02-25T13:50:10.420Z,11.90
2019-02-25T13:52:47.807Z,12.23
2019-02-25T13:55:12.590Z,11.97
2019-02-25T13:57:42.812Z,11.98
2019-02-25T14:00:16.582Z,11.99
2019-02-25T14:02:47.054Z,12.19
2019-02-25T14:05:17.103Z,12.19
2019-02-25T14:07:47.165Z,12.30
2019-02-25T14:10:17.207Z,12.36
2019-02-25T14:12:47.284Z,12.35
2019-02-25T14:15:17.683Z,12.72
2019-02-25T14:17:47.738Z,12.54
2019-02-25T14:20:18.613Z,12.48
2019-02-25T14:22:48.684Z,12.45
2019-02-25T14:25:20.090Z,12.79
2019-02-25T14:27:50.136Z,12.59
2019-02-25T14:30:22.074Z,12.86
2019-02-25T14:32:53.501Z,12.48
2019-02-25T14:35:27.857Z,12.63
2019-02-25T14:38:04.246Z,12.66
2019-02-25T14:40:32.364Z,12.54
2019-02-25T14:43:04.075Z,12.84
2019-02-25T14:45:34.536Z,12.72
2019-02-25T14:48:08.292Z,12.85
2019-02-25T14:50:38.149Z,12.87
2019-02-25T14:53:09.171Z,13.12
2019-02-25T14:55:40.697Z,12.90
2019-02-25T14:58:12.722Z,12.92
2019-02-25T15:00:43.585Z,12.90
2019-02-25T15:03:13.655Z,12.96
2019-02-25T15:05:44.094Z,12.80
2019-02-25T15:08:14.134Z,12.99
2019-02-25T15:10:44.282Z,12.74
2019-02-25T15:13:14.535Z,12.76
2019-02-25T15:15:45.783Z,12.59
2019-02-25T15:18:16.730Z,12.62
2019-02-25T15:20:48.877Z,13.09
2019-02-25T15:23:18.909Z,13.08
2019-02-25T15:25:50.273Z,12.73
2019-02-25T15:28:22.076Z,12.75
2019-02-25T15:30:52.050Z,12.61
2019-02-25T15:33:22.089Z,12.71
2019-02-25T15:35:52.133Z,12.76
2019-02-25T15:38:22.155Z,12.74
2019-02-25T15:40:52.204Z,12.81
2019-02-25T15:43:23.316Z,12.83
2019-02-25T15:45:54.079Z,12.84
2019-02-25T15:48:24.085Z,12.60
2019-02-25T15:50:55.628Z,12.74
2019-02-25T15:53:26.699Z,12.80
2019-02-25T15:55:59.189Z,12.64
2019-02-25T15:58:28.444Z,12.82
2019-02-25T16:00:58.595Z,12.83
2019-02-25T16:03:28.719Z,12.75
2019-02-25T16:06:01.638Z,12.42
2019-02-25T16:08:31.248Z,12.55
2019-02-25T16:11:02.628Z,12.58
2019-02-25T16:13:32.652Z,12.56
2019-02-25T16:16:02.681Z,12.73
2019-02-25T16:18:32.703Z,12.66
2019-02-25T16:21:02.813Z,12.70
2019-02-25T16:23:34.661Z,12.48
2019-02-25T16:26:04.636Z,12.59
2019-02-25T16:28:36.149Z,12.55
2019-02-25T16:31:07.964Z,12.45
2019-02-25T16:33:38.331Z,12.47
2019-02-25T16:36:09.995Z,12.46
2019-02-25T16:38:40.117Z,12.42
2019-02-25T16:41:10.360Z,12.32
2019-02-25T16:43:40.379Z,12.29
2019-02-25T16:46:14.022Z,12.20
2019-02-25T16:48:42.246Z,12.11
2019-02-25T16:51:12.640Z,12.12
2019-02-25T16:53:43.281Z,12.07
2019-02-25T16:56:14.561Z,12.02
2019-02-25T16:58:44.778Z,11.86
2019-02-25T17:01:14.800Z,11.61
2019-02-25T17:03:46.055Z,11.60
2019-02-25T17:06:16.736Z,11.64
2019-02-25T17:08:47.456Z,11.75
2019-02-25T17:11:20.122Z,11.64
2019-02-25T17:13:50.413Z,11.53
2019-02-25T17:16:23.501Z,11.61
2019-02-25T17:18:52.196Z,11.42
2019-02-25T17:21:22.248Z,11.35
2019-02-25T17:23:54.015Z,11.29
2019-02-25T17:26:24.149Z,11.10
2019-02-25T17:28:54.305Z,11.27
2019-02-25T17:31:24.379Z,11.10
2019-02-25T17:33:55.840Z,11.05
2019-02-25T17:36:26.283Z,11.13
2019-02-25T17:38:56.719Z,11.13
2019-02-25T17:41:26.801Z,11.00
2019-02-25T17:43:58.705Z,11.05
2019-02-25T17:46:28.773Z,11.12
2019-02-25T17:49:00.419Z,11.13
2019-02-25T17:51:30.542Z,11.12
2019-02-25T17:54:00.683Z,11.10
2019-02-25T17:56:30.706Z,11.08
2019-02-25T17:59:05.032Z,10.98
2019-02-25T18:01:34.931Z,10.85
2019-02-25T18:04:06.652Z,10.79
2019-02-25T18:06:38.845Z,10.71
2019-02-25T18:09:09.733Z,10.66
2019-02-25T18:11:41.237Z,10.48
2019-02-25T18:14:13.380Z,10.28
2019-02-25T18:16:46.123Z,10.23
2019-02-25T18:19:15.772Z,10.15
2019-02-25T18:21:47.101Z,10.13
2019-02-25T18:24:17.186Z,10.14
2019-02-25T18:26:47.504Z,10.09
2019-02-25T18:29:18.543Z,9.91
2019-02-25T18:31:49.291Z,9.98
2019-02-25T18:34:19.324Z,9.79
2019-02-25T18:36:51.055Z,9.72
2019-02-25T18:39:23.043Z,9.74
2019-02-25T18:41:54.968Z,9.63
2019-02-25T18:44:24.653Z,9.67
2019-02-25T18:46:54.657Z,9.57
2019-02-25T18:49:26.588Z,9.44
2019-02-25T18:51:56.447Z,9.53
2019-02-25T18:54:26.502Z,9.47
2019-02-25T18:56:57.010Z,9.48
2019-02-25T18:59:27.617Z,9.46
2019-02-25T19:01:57.657Z,9.39
2019-02-25T19:04:28.159Z,9.38
2019-02-25T19:06:59.845Z,9.42
2019-02-25T19:09:30.218Z,9.56
2019-02-25T19:12:00.322Z,9.35
2019-02-25T19:14:31.122Z,9.36
2019-02-25T19:17:04.806Z,9.31
2019-02-25T19:19:36.720Z,9.14
2019-02-25T19:22:08.248Z,9.23
2019-02-25T19:24:41.650Z,9.24
2019-02-25T19:27:10.890Z,9.23
2019-02-25T19:29:45.076Z,9.20
2019-02-25T19:32:14.838Z,9.35
2019-02-25T19:34:45.110Z,9.23
2019-02-25T19:37:15.158Z,9.15
2019-02-25T19:39:46.804Z,9.20
2019-02-25T19:42:19.790Z,9.05
2019-02-25T19:44:49.201Z,8.99
2019-02-25T19:47:19.446Z,9.05
2019-02-25T19:49:49.478Z,8.91
2019-02-25T19:52:19.845Z,8.96
2019-02-25T19:54:50.664Z,8.88
2019-02-25T19:57:21.669Z,8.91
2019-02-25T19:59:57.805Z,8.99
2019-02-25T20:02:29.741Z,8.75
2019-02-25T20:04:59.769Z,8.57
2019-02-25T20:07:31.483Z,8.74
2019-02-25T20:10:02.350Z,8.69
2019-02-25T20:12:35.133Z,8.66
2019-02-25T20:15:07.133Z,8.63
2019-02-25T20:17:36.472Z,8.64
2019-02-25T20:20:08.148Z,8.69
2019-02-25T20:22:40.369Z,8.73
2019-02-25T20:25:12.445Z,8.61
2019-02-25T20:27:42.666Z,8.61
2019-02-25T20:30:14.417Z,8.21
2019-02-25T20:32:44.577Z,8.45
2019-02-25T20:35:15.828Z,8.41
2019-02-25T20:37:52.897Z,8.16
2019-02-25T20:40:23.524Z,8.19
2019-02-25T20:42:54.195Z,7.77
2019-02-25T20:45:25.508Z,7.79
2019-02-25T20:47:57.212Z,7.79
2019-02-25T20:50:29.376Z,7.79
2019-02-25T20:53:03.669Z,7.75
2019-02-25T20:55:32.093Z,7.86
2019-02-25T20:58:03.070Z,7.60
2019-02-25T21:00:36.923Z,7.58
2019-02-25T21:03:05.143Z,7.54
2019-02-25T21:05:35.168Z,7.50
2019-02-25T21:08:05.435Z,7.68
2019-02-25T21:10:35.809Z,7.47
2019-02-25T21:13:05.861Z,7.54
2019-02-25T21:15:38.231Z,7.51
2019-02-25T21:18:07.979Z,7.50
2019-02-25T21:20:38.051Z,7.58
2019-02-25T21:23:10.167Z,7.54
2019-02-25T21:25:39.858Z,7.58
2019-02-25T21:28:11.383Z,7.61
2019-02-25T21:30:43.709Z,7.61
2019-02-25T21:33:15.704Z,7.41
2019-02-25T21:35:45.380Z,7.17
2019-02-25T21:38:15.494Z,7.43
2019-02-25T21:40:46.669Z,7.85
2019-02-25T21:43:18.687Z,7.67
2019-02-25T21:45:50.453Z,7.51
2019-02-25T21:48:23.099Z,7.39
2019-02-25T21:50:52.718Z,7.39
2019-02-25T21:53:22.806Z,7.49
2019-02-25T21:55:53.509Z,7.42
2019-02-25T21:58:25.448Z,7.38
2019-02-25T22:00:56.265Z,7.41
2019-02-25T22:03:26.253Z,7.22
2019-02-25T22:05:58.786Z,7.25
2019-02-25T22:08:29.101Z,7.31
2019-02-25T22:11:12.025Z,7.33
2019-02-25T22:13:31.476Z,7.07
2019-02-25T22:16:03.539Z,7.20
2019-02-25T22:18:34.624Z,7.10
2019-02-25T22:21:09.170Z,6.90
2019-02-25T22:23:37.399Z,6.86
2019-02-25T22:26:07.435Z,6.91
2019-02-25T22:28:39.331Z,6.83
2019-02-25T22:31:10.918Z,6.87
2019-02-25T22:33:40.980Z,6.98
2019-02-25T22:36:11.116Z,6.87
2019-02-25T22:38:41.112Z,6.80
2019-02-25T22:41:11.354Z,6.92
2019-02-25T22:43:43.726Z,7.09
2019-02-25T22:46:13.439Z,6.92
2019-02-25T22:48:45.504Z,6.88
2019-02-25T22:51:15.854Z,6.96
2019-02-25T22:53:46.250Z,6.82
2019-02-25T22:56:18.323Z,6.76
2019-02-25T22:58:49.338Z,6.75
2019-02-25T23:01:19.452Z,6.81
2019-02-25T23:03:52.553Z,6.75
2019-02-25T23:06:23.633Z,6.56
2019-02-25T23:08:55.575Z,6.28
2019-02-25T23:11:26.224Z,6.45
2019-02-25T23:13:56.619Z,6.35
2019-02-25T23:16:26.926Z,6.23
2019-02-25T23:18:56.952Z,5.87
2019-02-25T23:21:29.349Z,5.84
2019-02-25T23:24:01.193Z,5.94
2019-02-25T23:26:30.555Z,5.64
2019-02-25T23:29:02.347Z,5.75
2019-02-25T23:31:32.322Z,5.65
2019-02-25T23:34:02.418Z,5.58
2019-02-25T23:36:32.809Z,5.72
2019-02-25T23:39:03.735Z,5.72
2019-02-25T23:41:36.273Z,5.63
2019-02-25T23:44:07.138Z,5.75
2019-02-25T23:46:40.029Z,5.81
2019-02-25T23:49:10.161Z,6.04
2019-02-25T23:51:41.648Z,6.03
2019-02-25T23:54:14.236Z,5.72
2019-02-25T23:56:43.941Z,5.55
2019-02-25T23:59:17.012Z,5.52
